Time;durP1;ratioP1;P1;durP2;ratioP2;P2;SDS_P1;SDS_P2;PMS_P1;PMS_P2;Temp;Humidity;BMP_temperature;BMP_pressure;BME280_temperature;BME280_humidity;BME280_pressure;Samples;Min_cycle;Max_cycle;Signal;HPM_P1;HPM_P2
2023/07/02 00:01:41;;;;;;;9.73;5.85;;;18.60;99.90;;;;;;4863659;29;20085;-83
2023/07/02 00:04:08;;;;;;;10.90;6.18;;;18.60;99.90;;;;;;4885069;29;20030;-82
2023/07/02 00:06:40;;;;;;;10.25;5.57;;;18.70;99.90;;;;;;4874914;29;20045;-83
2023/07/02 00:09:06;;;;;;;14.55;5.63;;;18.70;99.90;;;;;;4861029;29;20036;-83
2023/07/02 00:11:32;;;;;;;11.82;5.40;;;18.60;99.90;;;;;;4862050;29;20074;-83
2023/07/02 00:13:57;;;;;;;15.60;6.13;;;18.60;99.90;;;;;;4861437;29;20025;-83
2023/07/02 00:16:23;;;;;;;18.60;6.07;;;18.60;99.90;;;;;;4861190;29;20030;-82
2023/07/02 00:18:52;;;;;;;9.63;5.00;;;18.60;99.90;;;;;;4861419;29;20034;-83
2023/07/02 00:21:19;;;;;;;12.48;6.18;;;18.50;99.90;;;;;;4861763;29;20473;-82
2023/07/02 00:23:44;;;;;;;11.65;6.40;;;18.50;99.90;;;;;;4861338;29;20062;-82
2023/07/02 00:26:10;;;;;;;15.00;6.28;;;18.50;99.90;;;;;;4861410;29;20074;-82
2023/07/02 00:28:35;;;;;;;10.70;5.80;;;18.50;99.90;;;;;;4861871;29;20069;-83
2023/07/02 00:31:02;;;;;;;12.48;6.10;;;18.50;99.90;;;;;;4860486;29;20037;-83
2023/07/02 00:33:28;;;;;;;15.35;5.85;;;18.40;99.90;;;;;;4861398;29;20040;-83
2023/07/02 00:35:54;;;;;;;13.18;6.28;;;18.40;99.90;;;;;;4861372;29;20052;-83
2023/07/02 00:38:20;;;;;;;14.25;6.63;;;18.40;99.90;;;;;;4860762;29;20470;-83
2023/07/02 00:40:45;;;;;;;20.08;7.07;;;18.50;99.90;;;;;;4861112;29;20474;-83
2023/07/02 00:43:12;;;;;;;20.58;6.25;;;18.60;99.90;;;;;;4861287;29;20032;-83
2023/07/02 00:45:39;;;;;;;12.20;5.97;;;18.30;99.90;;;;;;4860430;29;20120;-83
2023/07/02 00:48:05;;;;;;;12.90;5.82;;;18.30;99.90;;;;;;4860884;29;20162;-84
2023/07/02 00:50:31;;;;;;;16.63;6.60;;;18.30;99.90;;;;;;4861441;29;20037;-84
2023/07/02 00:52:57;;;;;;;18.40;7.13;;;18.30;99.90;;;;;;4860141;29;20049;-83
2023/07/02 00:55:23;;;;;;;12.27;6.53;;;18.20;99.90;;;;;;4860943;29;20034;-83
2023/07/02 00:57:49;;;;;;;14.25;5.97;;;18.30;99.90;;;;;;4860803;29;20082;-83
2023/07/02 01:00:15;;;;;;;13.93;6.68;;;18.30;99.90;;;;;;4860597;29;20029;-83
2023/07/02 01:02:59;;;;;;;16.77;7.00;;;18.20;99.90;;;;;;4860739;29;20037;-83
2023/07/02 01:05:35;;;;;;;12.05;5.82;;;18.20;99.90;;;;;;4860312;29;20052;-83
2023/07/02 01:08:05;;;;;;;15.43;6.25;;;18.20;99.90;;;;;;4860506;29;20048;-83
2023/07/02 01:10:32;;;;;;;15.45;6.88;;;18.20;99.90;;;;;;4855395;29;20040;-83
2023/07/02 01:13:02;;;;;;;11.75;6.50;;;18.30;99.90;;;;;;4859787;29;20048;-83
2023/07/02 01:15:28;;;;;;;11.60;7.05;;;18.20;99.90;;;;;;4861011;29;20048;-82
2023/07/02 01:17:54;;;;;;;10.77;6.22;;;18.20;99.90;;;;;;4860153;29;20029;-83
2023/07/02 01:20:20;;;;;;;17.77;6.10;;;18.10;99.90;;;;;;4860077;29;20068;-83
2023/07/02 01:22:48;;;;;;;16.27;7.03;;;18.10;99.90;;;;;;4859768;29;20109;-82
2023/07/02 01:25:15;;;;;;;12.63;6.30;;;18.10;99.90;;;;;;4860367;29;20054;-83
2023/07/02 01:27:41;;;;;;;9.25;5.80;;;18.10;99.90;;;;;;4859731;29;20052;-83
2023/07/02 01:30:09;;;;;;;12.77;6.13;;;18.00;99.90;;;;;;4860298;29;20112;-83
2023/07/02 01:32:34;;;;;;;14.30;7.25;;;18.10;99.90;;;;;;4860308;29;20041;-82
2023/07/02 01:35:00;;;;;;;12.60;6.20;;;18.30;99.90;;;;;;4859768;29;20029;-82
2023/07/02 01:37:26;;;;;;;13.93;6.50;;;18.10;99.90;;;;;;4860554;29;20048;-82
2023/07/02 01:39:52;;;;;;;12.48;6.82;;;18.00;99.90;;;;;;4860210;29;20493;-82
2023/07/02 01:42:19;;;;;;;13.18;6.32;;;18.00;99.90;;;;;;4859655;29;20054;-82
2023/07/02 01:44:46;;;;;;;13.13;7.05;;;18.00;99.90;;;;;;4860282;29;20090;-82
2023/07/02 01:47:12;;;;;;;11.75;6.15;;;18.80;99.90;;;;;;4860321;29;20084;-82
2023/07/02 01:49:38;;;;;;;17.50;7.20;;;18.00;99.90;;;;;;4875033;29;20025;-82
2023/07/02 01:52:05;;;;;;;11.57;6.93;;;18.20;99.90;;;;;;4873135;29;20353;-83
2023/07/02 01:54:32;;;;;;;20.08;8.55;;;17.90;99.90;;;;;;4861401;29;20021;-83
2023/07/02 01:56:58;;;;;;;14.43;8.15;;;17.90;99.90;;;;;;4860003;29;20479;-83
2023/07/02 01:59:24;;;;;;;16.15;7.88;;;17.90;99.90;;;;;;4860268;29;20030;-82
2023/07/02 02:01:50;;;;;;;21.95;8.55;;;17.90;99.90;;;;;;4859243;29;20053;-83
2023/07/02 02:04:16;;;;;;;19.17;8.07;;;17.90;99.90;;;;;;4860336;29;20049;-83
2023/07/02 02:06:42;;;;;;;16.08;8.20;;;17.90;99.90;;;;;;4860382;29;20128;-82
2023/07/02 02:09:09;;;;;;;22.00;8.82;;;17.80;99.90;;;;;;4859244;29;20029;-83
2023/07/02 02:11:37;;;;;;;25.00;9.02;;;17.80;99.90;;;;;;4859923;29;20040;-83
2023/07/02 02:14:03;;;;;;;19.98;8.75;;;17.80;99.90;;;;;;4859994;29;20026;-83
2023/07/02 02:16:29;;;;;;;18.08;7.93;;;18.40;99.90;;;;;;4859641;29;20431;-83
2023/07/02 02:18:55;;;;;;;21.80;8.73;;;17.80;99.90;;;;;;4859939;29;20104;-82
2023/07/02 02:21:21;;;;;;;18.23;7.82;;;17.70;99.90;;;;;;4859970;29;20105;-82
2023/07/02 02:23:47;;;;;;;18.38;7.95;;;17.80;99.90;;;;;;4859249;29;20030;-83
2023/07/02 02:26:14;;;;;;;16.08;8.15;;;17.80;99.90;;;;;;4859842;29;20109;-83
2023/07/02 02:28:41;;;;;;;21.88;9.65;;;17.80;99.90;;;;;;4859980;29;20037;-82
2023/07/02 02:31:06;;;;;;;22.58;9.43;;;17.80;99.90;;;;;;4859331;29;20120;-82
2023/07/02 02:33:33;;;;;;;23.85;9.10;;;17.80;99.90;;;;;;4862064;29;20113;-83
2023/07/02 02:35:58;;;;;;;21.60;8.48;;;17.80;99.90;;;;;;4863214;29;20053;-83
2023/07/02 02:38:24;;;;;;;16.58;8.60;;;17.80;99.90;;;;;;4862803;29;20026;-82
2023/07/02 02:40:50;;;;;;;24.58;9.00;;;17.80;99.90;;;;;;4863150;29;20124;-82
2023/07/02 02:43:17;;;;;;;18.27;8.80;;;17.70;99.90;;;;;;4863278;29;20158;-83
2023/07/02 02:45:43;;;;;;;22.73;8.57;;;17.70;99.90;;;;;;4862901;29;20390;-83
2023/07/02 02:48:08;;;;;;;21.33;8.38;;;17.70;99.90;;;;;;4863194;29;20039;-83
2023/07/02 02:50:34;;;;;;;15.90;8.93;;;17.70;99.90;;;;;;4862827;29;20033;-82
2023/07/02 02:52:59;;;;;;;19.80;9.25;;;17.70;99.90;;;;;;4862927;29;20030;-83
2023/07/02 02:55:26;;;;;;;22.38;9.32;;;18.10;99.90;;;;;;4863423;29;20033;-83
2023/07/02 02:57:51;;;;;;;18.77;8.70;;;17.60;99.90;;;;;;4862168;29;20522;-83
2023/07/02 03:00:17;;;;;;;20.63;8.90;;;17.60;99.90;;;;;;4863337;29;20117;-83
2023/07/02 03:02:43;;;;;;;25.88;9.93;;;17.60;99.90;;;;;;4863162;29;20032;-83
2023/07/02 03:05:09;;;;;;;15.70;8.40;;;17.60;99.90;;;;;;4862204;29;20482;-83
2023/07/02 03:07:35;;;;;;;27.13;9.15;;;17.50;99.90;;;;;;4862862;29;20398;-83
2023/07/02 03:10:01;;;;;;;22.35;10.18;;;17.50;99.90;;;;;;4862880;29;20423;-83
2023/07/02 03:12:27;;;;;;;24.15;8.85;;;17.50;99.90;;;;;;4862506;29;20112;-83
2023/07/02 03:14:54;;;;;;;28.27;10.02;;;17.50;99.90;;;;;;4862648;29;20032;-83
2023/07/02 03:17:23;;;;;;;23.23;9.77;;;17.50;99.90;;;;;;4862724;29;20029;-82
2023/07/02 03:19:49;;;;;;;20.73;9.13;;;17.50;99.90;;;;;;4862196;29;20033;-82
2023/07/02 03:22:14;;;;;;;21.40;9.20;;;17.50;99.90;;;;;;4862534;29;20085;-83
2023/07/02 03:24:40;;;;;;;21.08;8.98;;;17.50;99.90;;;;;;4862534;29;20089;-82
2023/07/02 03:27:06;;;;;;;21.88;10.13;;;17.50;99.90;;;;;;4861876;29;20076;-82
2023/07/02 03:29:33;;;;;;;25.88;9.25;;;17.50;99.90;;;;;;4862508;29;20066;-82
2023/07/02 03:31:59;;;;;;;21.38;9.48;;;17.50;99.90;;;;;;4862488;29;20041;-82
2023/07/02 03:34:25;;;;;;;25.55;8.93;;;17.50;99.90;;;;;;4862355;29;20486;-82
2023/07/02 03:36:50;;;;;;;20.80;9.82;;;17.50;99.90;;;;;;4882852;29;20049;-82
2023/07/02 03:39:17;;;;;;;30.02;9.75;;;17.50;99.90;;;;;;4878497;29;20030;-83
2023/07/02 03:41:43;;;;;;;24.85;9.63;;;17.40;99.90;;;;;;4864977;29;20034;-83
2023/07/02 03:44:09;;;;;;;24.67;9.32;;;17.40;99.90;;;;;;4861348;29;20061;-83
2023/07/02 03:46:34;;;;;;;25.27;9.43;;;17.40;99.90;;;;;;4862162;29;20458;-83
2023/07/02 03:49:00;;;;;;;19.67;9.27;;;17.40;99.90;;;;;;4861389;29;20026;-83
2023/07/02 03:51:26;;;;;;;24.13;9.60;;;17.40;99.90;;;;;;4862315;29;20036;-82
2023/07/02 03:54:02;;;;;;;25.63;10.15;;;17.40;99.90;;;;;;4857873;29;20042;-82
2023/07/02 03:56:27;;;;;;;21.35;9.05;;;17.40;99.90;;;;;;4862375;29;20036;-82
2023/07/02 03:58:53;;;;;;;25.20;10.00;;;17.50;99.90;;;;;;4861914;29;20394;-82
2023/07/02 04:01:18;;;;;;;24.20;10.13;;;17.70;99.90;;;;;;4861209;29;20078;-82
2023/07/02 04:03:51;;;;;;;28.77;10.80;;;17.50;99.90;;;;;;4861942;29;20034;-82
2023/07/02 04:06:17;;;;;;;18.75;8.70;;;17.40;99.90;;;;;;4862079;29;20132;-82
2023/07/02 04:08:43;;;;;;;22.85;9.55;;;17.40;99.90;;;;;;4861246;29;20527;-82
2023/07/02 04:11:10;;;;;;;22.77;8.38;;;17.40;99.90;;;;;;4861790;29;20076;-82
2023/07/02 04:13:35;;;;;;;28.27;9.55;;;17.50;99.90;;;;;;4861756;29;20061;-82
2023/07/02 04:16:01;;;;;;;19.33;7.97;;;17.40;99.90;;;;;;4860995;29;20064;-82
2023/07/02 04:18:26;;;;;;;20.33;8.88;;;17.30;99.90;;;;;;4861797;29;20049;-82
2023/07/02 04:20:52;;;;;;;19.50;8.98;;;17.40;99.90;;;;;;4861841;29;20029;-83
2023/07/02 04:23:18;;;;;;;25.65;9.18;;;17.30;99.90;;;;;;4860854;29;20107;-83
2023/07/02 04:25:43;;;;;;;24.30;9.48;;;17.30;99.90;;;;;;4861827;29;20081;-82
2023/07/02 04:28:09;;;;;;;23.42;9.05;;;17.30;99.90;;;;;;4861735;29;20435;-82
2023/07/02 04:30:34;;;;;;;21.13;7.90;;;17.30;99.90;;;;;;4861164;29;20486;-83
2023/07/02 04:33:00;;;;;;;26.52;8.82;;;17.30;99.90;;;;;;4861070;29;20025;-82
2023/07/02 04:35:27;;;;;;;26.63;9.15;;;17.30;99.90;;;;;;4861366;29;20402;-82
2023/07/02 04:37:53;;;;;;;32.63;8.75;;;17.30;99.90;;;;;;4860871;29;20033;-82
2023/07/02 04:40:18;;;;;;;23.20;8.80;;;17.20;99.90;;;;;;4861555;29;20443;-83
2023/07/02 04:42:47;;;;;;;27.55;9.07;;;17.20;99.90;;;;;;4861433;29;20026;-82
2023/07/02 04:45:15;;;;;;;21.98;9.23;;;17.20;99.90;;;;;;4860728;29;20033;-82
2023/07/02 04:47:44;;;;;;;26.67;8.48;;;17.20;99.90;;;;;;4861317;29;20102;-83
2023/07/02 04:50:11;;;;;;;25.17;8.57;;;17.30;99.90;;;;;;4860825;29;20108;-82
2023/07/02 04:52:38;;;;;;;27.02;9.23;;;17.40;99.90;;;;;;4861454;29;20030;-83
2023/07/02 04:55:04;;;;;;;21.15;8.38;;;17.20;99.90;;;;;;4860966;29;20150;-83
2023/07/02 04:57:30;;;;;;;23.60;8.32;;;17.20;99.90;;;;;;4860384;29;20030;-82
2023/07/02 04:59:55;;;;;;;22.50;8.32;;;17.30;99.90;;;;;;4860877;29;20034;-83
2023/07/02 05:02:21;;;;;;;22.27;8.05;;;17.30;99.90;;;;;;4860980;29;20066;-83
2023/07/02 05:04:47;;;;;;;25.83;8.68;;;17.30;99.90;;;;;;4860656;29;20117;-82
2023/07/02 05:07:18;;;;;;;19.67;8.32;;;17.30;99.90;;;;;;4861168;29;20060;-83
2023/07/02 05:09:44;;;;;;;28.20;8.30;;;17.40;99.90;;;;;;4861031;29;20125;-83
2023/07/02 05:12:10;;;;;;;17.08;7.30;;;17.40;99.90;;;;;;4860117;29;20494;-83
2023/07/02 05:14:35;;;;;;;18.98;7.32;;;17.40;99.90;;;;;;4860795;29;20029;-82
2023/07/02 05:17:01;;;;;;;17.02;8.32;;;17.40;99.90;;;;;;4860720;29;20471;-82
2023/07/02 05:19:29;;;;;;;28.63;7.30;;;17.30;99.90;;;;;;4859828;29;20135;-82
2023/07/02 05:21:55;;;;;;;18.48;8.10;;;17.40;99.90;;;;;;4864594;29;20021;-82
2023/07/02 05:24:21;;;;;;;23.10;8.25;;;17.80;99.90;;;;;;4883443;29;20040;-83
2023/07/02 05:26:46;;;;;;;19.40;8.23;;;17.40;99.90;;;;;;4872525;29;20042;-83
2023/07/02 05:29:13;;;;;;;27.33;8.63;;;17.40;99.90;;;;;;4860406;29;20046;-83
2023/07/02 05:31:39;;;;;;;19.45;7.78;;;17.30;99.90;;;;;;4860760;29;20097;-83
2023/07/02 05:34:04;;;;;;;20.55;8.52;;;17.40;99.90;;;;;;4859645;29;20522;-83
2023/07/02 05:36:30;;;;;;;14.35;7.70;;;17.40;99.90;;;;;;4860675;29;20546;-83
2023/07/02 05:38:55;;;;;;;21.95;7.45;;;17.40;99.90;;;;;;4860268;29;20029;-83
2023/07/02 05:41:21;;;;;;;20.88;7.65;;;17.40;99.90;;;;;;4859701;29;20093;-83
2023/07/02 05:43:47;;;;;;;21.20;6.90;;;17.40;99.90;;;;;;4860203;29;20037;-83
2023/07/02 05:46:14;;;;;;;26.67;7.28;;;17.50;99.90;;;;;;4860046;29;20046;-82
2023/07/02 05:48:40;;;;;;;15.43;6.32;;;18.10;99.90;;;;;;4859827;29;20021;-82
2023/07/02 05:51:06;;;;;;;18.88;6.95;;;17.40;99.90;;;;;;4860256;29;20045;-82
2023/07/02 05:53:31;;;;;;;20.35;7.15;;;17.50;99.90;;;;;;4859661;29;20049;-82
2023/07/02 05:55:57;;;;;;;21.20;8.00;;;17.50;99.90;;;;;;4860014;29;20483;-82
2023/07/02 05:58:22;;;;;;;23.98;7.80;;;17.40;99.90;;;;;;4859838;29;20041;-82
2023/07/02 06:00:49;;;;;;;16.65;6.88;;;17.50;99.90;;;;;;4859452;29;20040;-82
2023/07/02 06:03:21;;;;;;;18.88;7.38;;;17.40;99.90;;;;;;4860210;29;20475;-82
2023/07/02 06:05:50;;;;;;;25.00;7.20;;;17.40;99.90;;;;;;4860109;29;20039;-82
2023/07/02 06:08:16;;;;;;;18.02;7.15;;;18.00;99.90;;;;;;4861381;29;20036;-82
2023/07/02 06:10:43;;;;;;;15.57;6.28;;;17.50;99.90;;;;;;4863821;29;20036;-82
2023/07/02 06:13:09;;;;;;;19.70;6.63;;;17.50;99.90;;;;;;4864175;29;20478;-82
2023/07/02 06:15:34;;;;;;;18.85;7.95;;;17.50;99.90;;;;;;4863748;29;20029;-82
2023/07/02 06:18:00;;;;;;;19.98;7.35;;;17.50;99.90;;;;;;4863691;29;20026;-83
2023/07/02 06:20:26;;;;;;;19.35;6.25;;;17.50;99.90;;;;;;4863969;29;20025;-83
2023/07/02 06:22:51;;;;;;;16.23;6.85;;;17.40;99.90;;;;;;4862865;29;20022;-83
2023/07/02 06:25:17;;;;;;;16.52;7.38;;;17.40;99.90;;;;;;4863624;29;20078;-83
2023/07/02 06:27:42;;;;;;;24.45;7.03;;;17.40;99.90;;;;;;4863603;29;20034;-82
2023/07/02 06:30:08;;;;;;;17.98;6.63;;;17.40;99.90;;;;;;4862493;29;20124;-82
2023/07/02 06:32:34;;;;;;;16.98;6.57;;;17.40;99.90;;;;;;4863623;29;20038;-82
2023/07/02 06:34:59;;;;;;;19.05;7.40;;;17.40;99.90;;;;;;4863446;29;20025;-83
2023/07/02 06:37:25;;;;;;;12.73;6.50;;;17.40;99.90;;;;;;4862865;29;20096;-83
2023/07/02 06:39:50;;;;;;;23.67;7.03;;;17.70;99.90;;;;;;4863324;29;20040;-82
2023/07/02 06:42:16;;;;;;;21.63;7.15;;;17.40;99.90;;;;;;4863151;29;20032;-82
2023/07/02 06:44:42;;;;;;;14.02;7.35;;;17.40;99.90;;;;;;4863111;29;20052;-82
2023/07/02 06:47:07;;;;;;;21.27;6.50;;;17.40;99.90;;;;;;4863033;29;20037;-82
2023/07/02 06:49:33;;;;;;;16.83;6.35;;;17.30;99.90;;;;;;4863235;29;20161;-83
2023/07/02 06:52:00;;;;;;;16.38;6.63;;;17.40;99.90;;;;;;4862517;29;20033;-83
2023/07/02 06:54:26;;;;;;;15.70;6.20;;;17.50;99.90;;;;;;4863416;29;20037;-83
2023/07/02 06:56:52;;;;;;;14.00;6.55;;;17.50;99.90;;;;;;4862187;29;20037;-83
2023/07/02 06:59:22;;;;;;;29.33;6.15;;;17.50;99.90;;;;;;4863435;29;20483;-83
2023/07/02 07:01:47;;;;;;;16.25;5.43;;;17.60;99.90;;;;;;4863365;29;20026;-83
2023/07/02 07:04:13;;;;;;;19.25;5.45;;;17.50;99.90;;;;;;4862624;29;20038;-83
2023/07/02 07:06:39;;;;;;;15.90;5.55;;;17.50;99.90;;;;;;4863358;29;20045;-83
2023/07/02 07:09:04;;;;;;;15.20;6.47;;;17.40;99.90;;;;;;4872099;29;20037;-83
2023/07/02 07:11:30;;;;;;;11.52;5.20;;;17.40;99.90;;;;;;4885388;29;20030;-83
2023/07/02 07:13:55;;;;;;;17.52;6.18;;;17.40;99.90;;;;;;4873936;29;20034;-83
2023/07/02 07:16:23;;;;;;;14.00;5.05;;;17.90;99.90;;;;;;4862575;29;20026;-83
2023/07/02 07:18:48;;;;;;;12.90;5.72;;;18.00;99.90;;;;;;4861678;29;20033;-83
2023/07/02 07:21:14;;;;;;;13.63;6.15;;;17.50;99.90;;;;;;4862394;29;20504;-84
2023/07/02 07:23:40;;;;;;;14.00;5.38;;;18.00;99.90;;;;;;4862570;29;20021;-83
2023/07/02 07:26:06;;;;;;;14.88;7.05;;;17.90;99.90;;;;;;4861842;29;20145;-83
2023/07/02 07:28:32;;;;;;;14.20;6.18;;;17.50;99.90;;;;;;4862859;29;20021;-83
2023/07/02 07:30:57;;;;;;;15.75;6.13;;;17.90;99.90;;;;;;4862222;29;20026;-83
2023/07/02 07:33:23;;;;;;;20.30;6.22;;;17.60;99.90;;;;;;4862151;29;20026;-83
2023/07/02 07:35:49;;;;;;;16.20;5.45;;;17.60;99.90;;;;;;4862342;29;20086;-83
2023/07/02 07:38:14;;;;;;;14.25;5.65;;;17.60;99.90;;;;;;4862865;29;20109;-83
2023/07/02 07:40:40;;;;;;;15.82;5.85;;;18.10;99.90;;;;;;4861628;29;20029;-83
2023/07/02 07:43:06;;;;;;;17.55;6.45;;;17.60;99.90;;;;;;4862443;29;20030;-83
2023/07/02 07:45:33;;;;;;;16.45;6.15;;;17.60;99.90;;;;;;4862338;29;20034;-83
2023/07/02 07:47:58;;;;;;;14.30;5.50;;;17.60;99.90;;;;;;4861856;29;20065;-83
2023/07/02 07:50:24;;;;;;;17.55;6.18;;;17.60;99.90;;;;;;4862293;29;20052;-83
2023/07/02 07:52:51;;;;;;;13.32;6.38;;;17.60;99.90;;;;;;4862024;29;20057;-83
2023/07/02 07:55:16;;;;;;;13.73;6.22;;;18.50;99.90;;;;;;4862271;29;20033;-83
2023/07/02 07:57:42;;;;;;;15.20;6.18;;;17.70;99.90;;;;;;4862351;29;20025;-83
2023/07/02 08:00:11;;;;;;;13.65;5.85;;;17.80;99.90;;;;;;4861033;29;20026;-83
2023/07/02 08:02:37;;;;;;;23.45;6.38;;;17.70;99.90;;;;;;4862873;29;20086;-83
2023/07/02 08:05:04;;;;;;;14.73;5.78;;;17.80;99.90;;;;;;4861950;29;20034;-83
2023/07/02 08:07:31;;;;;;;13.65;5.88;;;17.70;99.90;;;;;;4861315;29;20049;-83
2023/07/02 08:09:57;;;;;;;13.38;4.93;;;17.70;99.90;;;;;;4861743;29;20117;-83
2023/07/02 08:12:22;;;;;;;18.48;5.97;;;17.70;99.90;;;;;;4862253;29;20112;-83
2023/07/02 08:14:49;;;;;;;11.77;5.07;;;17.80;99.90;;;;;;4861781;29;20036;-83
2023/07/02 08:17:14;;;;;;;12.85;5.63;;;17.80;99.90;;;;;;4861817;29;20034;-83
2023/07/02 08:19:40;;;;;;;13.27;5.10;;;17.80;99.90;;;;;;4861562;29;20534;-83
2023/07/02 08:22:06;;;;;;;12.82;5.55;;;17.80;99.90;;;;;;4860755;29;20041;-83
2023/07/02 08:24:31;;;;;;;17.33;5.00;;;17.80;99.90;;;;;;4861702;29;20165;-83
2023/07/02 08:26:58;;;;;;;12.18;6.07;;;17.80;99.90;;;;;;4861695;29;20041;-83
2023/07/02 08:29:23;;;;;;;12.68;5.50;;;17.90;99.90;;;;;;4861920;29;20048;-83
2023/07/02 08:31:49;;;;;;;11.32;5.18;;;17.90;99.90;;;;;;4861046;29;20029;-83
2023/07/02 08:34:15;;;;;;;11.63;4.80;;;17.90;99.90;;;;;;4861602;29;20033;-83
2023/07/02 08:36:40;;;;;;;9.13;4.93;;;17.90;99.90;;;;;;4861171;29;20029;-82
2023/07/02 08:39:06;;;;;;;17.65;5.70;;;18.60;99.90;;;;;;4861227;29;20525;-83
2023/07/02 08:41:43;;;;;;;9.40;4.85;;;18.00;99.90;;;;;;4861884;29;20387;-82
2023/07/02 08:44:09;;;;;;;10.25;4.38;;;18.00;99.90;;;;;;4860980;29;20026;-83
2023/07/02 08:46:35;;;;;;;10.50;4.00;;;18.00;99.90;;;;;;4861356;29;20040;-83
2023/07/02 08:49:01;;;;;;;8.57;4.28;;;18.00;99.50;;;;;;4860607;29;20427;-83
2023/07/02 08:51:26;;;;;;;8.52;4.45;;;17.90;99.80;;;;;;4861318;29;20033;-83
2023/07/02 08:53:52;;;;;;;10.48;4.35;;;17.90;99.90;;;;;;4861981;29;20078;-83
2023/07/02 08:56:17;;;;;;;6.05;3.30;;;18.00;99.90;;;;;;4882892;29;20021;-83
2023/07/02 08:58:44;;;;;;;10.30;3.95;;;18.00;98.90;;;;;;4877483;29;20065;-83
2023/07/02 09:01:13;;;;;;;9.18;4.30;;;18.00;99.50;;;;;;4863002;29;20040;-83
2023/07/02 09:03:39;;;;;;;11.77;3.55;;;18.00;99.10;;;;;;4860558;29;20056;-82
2023/07/02 09:06:06;;;;;;;8.02;3.75;;;17.90;98.00;;;;;;4860952;29;20394;-83
2023/07/02 09:08:35;;;;;;;5.55;3.80;;;18.00;98.70;;;;;;4861145;29;20038;-83
2023/07/02 09:11:16;;;;;;;9.32;4.07;;;18.10;98.50;;;;;;4860167;29;20050;-83
2023/07/02 09:13:53;;;;;;;7.18;3.70;;;18.10;98.40;;;;;;4860872;29;20471;-83
2023/07/02 09:16:32;;;;;;;10.02;4.07;;;18.20;98.50;;;;;;4860867;29;20108;-83
2023/07/02 09:19:08;;;;;;;9.20;3.77;;;18.10;98.10;;;;;;4860393;29;20051;-83
2023/07/02 09:21:46;;;;;;;10.82;3.83;;;18.10;98.10;;;;;;4860884;29;20033;-83
2023/07/02 09:24:22;;;;;;;6.07;3.85;;;18.10;98.30;;;;;;4860620;29;20062;-83
2023/07/02 09:26:57;;;;;;;10.75;4.03;;;18.10;98.70;;;;;;4860325;29;20049;-82
2023/07/02 09:29:30;;;;;;;7.32;3.90;;;18.20;98.20;;;;;;4860841;29;20442;-83
2023/07/02 09:31:58;;;;;;;6.82;3.47;;;18.20;97.40;;;;;;4859837;29;20030;-83
2023/07/02 09:34:31;;;;;;;8.35;3.50;;;18.20;96.40;;;;;;4860697;29;20082;-83
2023/07/02 09:36:58;;;;;;;6.80;3.38;;;18.10;96.00;;;;;;4860427;29;20522;-83
2023/07/02 09:39:32;;;;;;;17.30;3.67;;;18.20;96.30;;;;;;4859985;29;20044;-83
2023/07/02 09:42:00;;;;;;;7.70;3.50;;;18.20;97.50;;;;;;4859893;29;20057;-83
2023/07/02 09:44:30;;;;;;;9.13;2.90;;;18.20;96.50;;;;;;4860345;29;20025;-83
2023/07/02 09:47:05;;;;;;;5.03;2.95;;;18.30;96.80;;;;;;4859503;29;20442;-82
2023/07/02 09:49:36;;;;;;;13.90;3.15;;;18.30;95.50;;;;;;4843936;29;20029;-82
2023/07/02 09:52:04;;;;;;;4.97;3.10;;;18.30;95.30;;;;;;4859900;29;20029;-82
2023/07/02 09:54:30;;;;;;;3.78;3.40;;;18.30;96.00;;;;;;4860175;29;20397;-82
2023/07/02 09:56:58;;;;;;;3.50;2.63;;;18.20;96.20;;;;;;4860048;29;20033;-82
2023/07/02 09:59:24;;;;;;;5.43;3.20;;;18.50;96.10;;;;;;4860517;29;20435;-82
2023/07/02 10:01:50;;;;;;;9.43;2.88;;;18.30;95.90;;;;;;4859928;29;20057;-82
2023/07/02 10:04:20;;;;;;;7.38;3.30;;;18.20;95.30;;;;;;4843866;29;20109;-82
2023/07/02 10:06:47;;;;;;;;;;;18.40;96.20;;;;;;4860269;29;20133;-83
2023/07/02 10:09:12;;;;;;;8.68;3.08;;;18.30;96.00;;;;;;4860616;29;19934;-83
2023/07/02 10:11:38;;;;;;;10.43;4.03;;;19.10;97.30;;;;;;4860820;29;20030;-83
2023/07/02 10:14:04;;;;;;;7.93;2.80;;;18.40;97.30;;;;;;4859215;29;20394;-83
2023/07/02 10:16:33;;;;;;;4.15;3.05;;;18.40;94.40;;;;;;4860460;29;20034;-83
2023/07/02 10:19:12;;;;;;;5.50;2.90;;;18.40;94.90;;;;;;4859880;29;20193;-83
2023/07/02 10:21:38;;;;;;;7.30;3.50;;;18.40;95.40;;;;;;4859785;29;20041;-83
2023/07/02 10:24:14;;;;;;;4.93;2.92;;;18.50;95.90;;;;;;4860101;29;20025;-83
2023/07/02 10:26:52;;;;;;;7.88;3.60;;;18.60;95.40;;;;;;4860393;29;20097;-82
2023/07/02 10:29:22;;;;;;;5.40;3.30;;;18.60;95.90;;;;;;4859912;29;20032;-83
2023/07/02 10:31:49;;;;;;;7.90;3.15;;;19.00;94.90;;;;;;4860226;29;20484;-83
2023/07/02 10:34:14;;;;;;;6.70;4.03;;;18.50;94.90;;;;;;4843632;29;20038;-83
2023/07/02 10:36:40;;;;;;;6.30;3.63;;;18.60;94.00;;;;;;4859940;29;20383;-82
2023/07/02 10:39:05;;;;;;;7.07;4.00;;;18.50;94.30;;;;;;4859902;29;20049;-83
2023/07/02 10:41:31;;;;;;;6.68;3.67;;;18.50;95.00;;;;;;4872863;29;20033;-83
2023/07/02 10:44:08;;;;;;;11.07;4.00;;;18.60;94.80;;;;;;4879647;29;20413;-83
2023/07/02 10:46:34;;;;;;;7.13;3.88;;;18.60;95.40;;;;;;4864915;29;20050;-83
2023/07/02 10:49:00;;;;;;;7.78;3.55;;;18.60;95.50;;;;;;4859478;29;20026;-82
2023/07/02 10:51:28;;;;;;;6.20;3.78;;;18.70;94.10;;;;;;4860363;29;20047;-83
2023/07/02 10:54:00;;;;;;;6.88;3.72;;;18.60;93.00;;;;;;4860793;29;20100;-82
2023/07/02 10:56:29;;;;;;;5.40;3.10;;;18.60;92.90;;;;;;4862791;29;20487;-82
2023/07/02 10:58:55;;;;;;;7.28;3.63;;;18.60;93.30;;;;;;4863440;29;20037;-82
2023/07/02 11:01:29;;;;;;;6.15;3.83;;;19.20;94.30;;;;;;4863519;29;20038;-82
2023/07/02 11:04:01;;;;;;;6.28;3.80;;;18.70;94.50;;;;;;4862245;29;20085;-82
2023/07/02 11:06:28;;;;;;;8.35;4.35;;;18.90;95.60;;;;;;4863098;29;20034;-82
2023/07/02 11:08:55;;;;;;;6.72;3.55;;;18.70;94.90;;;;;;4862863;29;20032;-83
2023/07/02 11:11:22;;;;;;;7.88;4.18;;;18.70;94.60;;;;;;4862849;29;20033;-83
2023/07/02 11:13:51;;;;;;;12.13;4.45;;;18.90;93.70;;;;;;4863117;29;20044;-83
2023/07/02 11:16:20;;;;;;;10.20;3.88;;;18.80;93.90;;;;;;4862928;29;20379;-83
2023/07/02 11:18:45;;;;;;;5.55;3.60;;;18.80;94.00;;;;;;4862433;29;20154;-83
2023/07/02 11:21:11;;;;;;;9.55;4.78;;;19.30;94.60;;;;;;4862932;29;20120;-82
2023/07/02 11:23:36;;;;;;;6.93;3.75;;;18.80;95.00;;;;;;4862953;29;20025;-83
2023/07/02 11:26:03;;;;;;;7.45;4.25;;;18.80;94.90;;;;;;4862025;29;20162;-83
2023/07/02 11:28:31;;;;;;;7.70;4.60;;;18.80;95.00;;;;;;4862842;29;20034;-83
2023/07/02 11:30:58;;;;;;;10.80;4.28;;;19.30;95.60;;;;;;4862494;29;20491;-83
2023/07/02 11:33:37;;;;;;;8.27;4.60;;;18.80;94.50;;;;;;4862399;29;20383;-82
2023/07/02 11:36:04;;;;;;;6.45;3.85;;;18.80;95.10;;;;;;4862337;29;20029;-82
2023/07/02 11:38:29;;;;;;;8.40;4.32;;;18.90;95.80;;;;;;4862018;29;20041;-82
2023/07/02 11:40:55;;;;;;;10.48;4.55;;;18.90;94.70;;;;;;4862270;29;20491;-83
2023/07/02 11:43:21;;;;;;;11.07;4.65;;;19.30;95.40;;;;;;4862522;29;20033;-83
2023/07/02 11:45:46;;;;;;;10.13;4.35;;;19.50;95.70;;;;;;4861364;29;20034;-83
2023/07/02 11:48:12;;;;;;;9.98;4.70;;;18.90;95.80;;;;;;4862588;29;20044;-82
2023/07/02 11:50:38;;;;;;;12.82;4.25;;;19.00;94.50;;;;;;4862646;29;20481;-83
2023/07/02 11:53:03;;;;;;;7.80;4.57;;;19.50;94.60;;;;;;4861742;29;20072;-82
2023/07/02 11:55:29;;;;;;;8.13;4.07;;;19.10;95.00;;;;;;4862856;29;20021;-83
2023/07/02 11:57:55;;;;;;;6.20;4.32;;;19.80;95.40;;;;;;4863184;29;20033;-82
2023/07/02 12:00:20;;;;;;;10.77;4.43;;;19.10;94.20;;;;;;4862359;29;20029;-82
2023/07/02 12:02:46;;;;;;;7.45;4.40;;;19.00;94.50;;;;;;4862341;29;20078;-82
2023/07/02 12:05:11;;;;;;;6.95;4.35;;;19.10;94.40;;;;;;4860987;29;20033;-82
2023/07/02 12:07:37;;;;;;;9.82;4.85;;;19.40;94.60;;;;;;4861972;29;20121;-82
2023/07/02 12:10:03;;;;;;;12.10;4.82;;;19.10;94.50;;;;;;4862153;29;20382;-82
2023/07/02 12:12:28;;;;;;;5.95;4.90;;;19.10;95.10;;;;;;4862101;29;20044;-82
2023/07/02 12:14:54;;;;;;;8.15;4.28;;;19.10;94.80;;;;;;4845588;29;20037;-82
2023/07/02 12:17:20;;;;;;;7.97;4.68;;;19.10;94.10;;;;;;4862494;29;20040;-82
2023/07/02 12:19:45;;;;;;;11.68;6.70;;;19.30;94.90;;;;;;4861581;29;20113;-82
2023/07/02 12:22:11;;;;;;;7.63;3.88;;;19.60;95.40;;;;;;4861920;29;20394;-82
2023/07/02 12:24:36;;;;;;;13.00;4.93;;;19.10;95.30;;;;;;4862001;29;20040;-82
2023/07/02 12:27:02;;;;;;;15.57;4.97;;;19.10;94.70;;;;;;4870545;29;20064;-83
2023/07/02 12:29:28;;;;;;;9.80;4.78;;;19.10;95.30;;;;;;4884368;29;20041;-83
2023/07/02 12:31:53;;;;;;;7.38;4.53;;;19.20;95.30;;;;;;4873068;29;20033;-83
2023/07/02 12:34:19;;;;;;;8.80;4.40;;;19.10;95.10;;;;;;4861215;29;20399;-82
2023/07/02 12:36:44;;;;;;;7.93;4.70;;;19.10;94.60;;;;;;4861711;29;20493;-83